createdAt,value
2023-01-17T00:02:15.428Z,0.00
2023-01-17T00:05:01.266Z,0.00
2023-01-17T00:07:47.688Z,0.00
2023-01-17T00:10:17.726Z,0.00
2023-01-17T00:12:49.877Z,0.00
2023-01-17T00:15:19.949Z,0.00
2023-01-17T00:17:49.110Z,0.10
2023-01-17T00:20:35.538Z,0.00
2023-01-17T00:23:24.432Z,0.00
2023-01-17T00:26:04.865Z,0.00
2023-01-17T00:28:34.315Z,0.00
2023-01-17T00:31:01.640Z,0.00
2023-01-17T00:33:29.051Z,0.00
2023-01-17T00:35:57.597Z,0.00
2023-01-17T00:38:25.412Z,0.10
2023-01-17T00:40:52.830Z,0.00
2023-01-17T00:43:39.779Z,0.00
2023-01-17T00:46:27.657Z,0.00
2023-01-17T00:49:13.652Z,0.00
2023-01-17T00:51:59.550Z,0.00
2023-01-17T00:54:45.446Z,0.07
2023-01-17T00:57:31.213Z,0.00
2023-01-17T01:00:17.216Z,0.53
2023-01-17T01:03:04.438Z,0.00
2023-01-17T01:05:50.265Z,0.00
2023-01-17T01:08:37.537Z,0.00
2023-01-17T01:11:27.745Z,0.00
2023-01-17T01:14:14.104Z,0.00
2023-01-17T01:17:00.081Z,0.00
2023-01-17T01:19:49.342Z,0.00
2023-01-17T01:22:35.291Z,0.00
2023-01-17T01:25:21.281Z,0.00
2023-01-17T01:28:07.129Z,0.00
2023-01-17T01:30:54.745Z,0.00
2023-01-17T01:33:21.966Z,0.00
2023-01-17T01:35:53.904Z,0.00
2023-01-17T01:38:23.407Z,0.00
2023-01-17T01:40:52.658Z,0.00
2023-01-17T01:43:22.027Z,0.00
2023-01-17T01:45:53.534Z,0.00
2023-01-17T01:48:25.978Z,0.00
2023-01-17T01:50:55.783Z,0.00
2023-01-17T01:53:24.434Z,0.00
2023-01-17T01:55:53.101Z,0.00
2023-01-17T01:58:24.109Z,0.00
2023-01-17T02:00:52.972Z,0.00
2023-01-17T02:03:23.526Z,0.00
2023-01-17T02:05:51.868Z,0.00
2023-01-17T02:08:23.178Z,0.00
2023-01-17T02:10:52.293Z,0.00
2023-01-17T02:13:22.122Z,0.00
2023-01-17T02:15:57.595Z,0.00
2023-01-17T02:18:31.884Z,0.00
2023-01-17T02:21:06.766Z,0.00
2023-01-17T02:23:47.907Z,0.00
2023-01-17T02:26:31.226Z,0.00
2023-01-17T02:29:11.729Z,0.00
2023-01-17T02:31:46.328Z,0.00
2023-01-17T02:34:17.808Z,0.20
2023-01-17T02:36:48.476Z,0.00
2023-01-17T02:39:19.935Z,0.00
2023-01-17T02:41:50.763Z,0.00
2023-01-17T02:44:22.253Z,0.00
2023-01-17T02:46:53.501Z,0.00
2023-01-17T02:49:23.380Z,0.00
2023-01-17T02:52:05.766Z,0.00
2023-01-17T02:54:43.154Z,0.00
2023-01-17T02:57:18.320Z,0.00
2023-01-17T02:59:49.249Z,0.00
2023-01-17T03:02:24.067Z,0.00
2023-01-17T03:04:56.153Z,0.10
2023-01-17T03:07:26.328Z,0.00
2023-01-17T03:09:59.438Z,0.00
2023-01-17T03:12:28.750Z,0.00
2023-01-17T03:14:57.127Z,0.00
2023-01-17T03:17:28.195Z,0.00
2023-01-17T03:19:56.679Z,0.00
2023-01-17T03:22:25.143Z,0.00
2023-01-17T03:24:53.421Z,0.00
2023-01-17T03:27:21.780Z,0.00
2023-01-17T03:29:50.109Z,0.00
2023-01-17T03:32:18.495Z,0.00
2023-01-17T03:34:48.184Z,0.00
2023-01-17T03:37:16.594Z,0.00
2023-01-17T03:39:44.879Z,0.00
2023-01-17T03:42:13.362Z,0.00
2023-01-17T03:44:41.724Z,0.30
2023-01-17T03:47:12.145Z,0.00
2023-01-17T03:49:41.008Z,0.00
2023-01-17T03:52:10.746Z,0.00
2023-01-17T03:54:39.195Z,0.00
2023-01-17T03:57:08.427Z,0.00
2023-01-17T03:59:36.843Z,0.00
2023-01-17T04:02:05.264Z,0.00
2023-01-17T04:04:34.171Z,0.00
2023-01-17T04:07:02.544Z,0.00
2023-01-17T04:09:34.559Z,0.00
2023-01-17T04:12:02.975Z,0.00
2023-01-17T04:14:31.409Z,0.00
2023-01-17T04:16:59.953Z,0.00
2023-01-17T04:19:28.477Z,0.00
2023-01-17T04:21:56.866Z,0.00
2023-01-17T04:24:25.240Z,0.00
2023-01-17T04:26:54.887Z,0.00
2023-01-17T04:29:23.253Z,0.00
2023-01-17T04:31:51.665Z,0.00
2023-01-17T04:34:20.299Z,0.00
2023-01-17T04:36:48.681Z,0.00
2023-01-17T04:39:17.003Z,0.00
2023-01-17T04:41:45.275Z,0.00
2023-01-17T04:44:15.083Z,0.00
2023-01-17T04:46:43.415Z,0.00
2023-01-17T04:49:11.762Z,0.10
2023-01-17T04:51:40.281Z,0.00
2023-01-17T04:54:08.641Z,0.00
2023-01-17T04:56:36.918Z,0.00
2023-01-17T04:59:05.285Z,0.00
2023-01-17T05:01:35.157Z,0.00
2023-01-17T05:04:03.636Z,0.00
2023-01-17T05:06:31.937Z,0.00
2023-01-17T05:09:00.301Z,0.20
2023-01-17T05:11:28.603Z,0.00
2023-01-17T05:13:56.907Z,0.00
2023-01-17T05:16:25.189Z,0.00
2023-01-17T05:18:55.285Z,0.00
2023-01-17T05:21:24.020Z,0.00
2023-01-17T05:23:52.374Z,0.00
2023-01-17T05:26:20.708Z,0.00
2023-01-17T05:28:49.027Z,0.00
2023-01-17T05:31:17.461Z,0.00
2023-01-17T05:33:45.826Z,0.00
2023-01-17T05:36:15.570Z,0.00
2023-01-17T05:38:44.004Z,0.00
2023-01-17T05:41:12.426Z,0.00
2023-01-17T05:43:40.880Z,0.00
2023-01-17T05:46:09.291Z,0.00
2023-01-17T05:48:37.656Z,0.00
2023-01-17T05:51:06.265Z,0.00
2023-01-17T05:53:35.968Z,0.03
2023-01-17T05:56:04.679Z,0.00
2023-01-17T05:58:33.057Z,0.00
2023-01-17T06:01:01.398Z,0.00
2023-01-17T06:03:29.842Z,0.00
2023-01-17T06:05:58.243Z,0.10
2023-01-17T06:08:26.612Z,0.00
2023-01-17T06:10:56.322Z,0.00
2023-01-17T06:13:24.686Z,0.00
2023-01-17T06:15:53.027Z,0.07
2023-01-17T06:18:21.449Z,0.67
2023-01-17T06:20:54.263Z,0.00
2023-01-17T06:23:23.168Z,0.00
2023-01-17T06:25:51.959Z,0.00
2023-01-17T06:28:22.753Z,0.10
2023-01-17T06:30:51.348Z,0.00
2023-01-17T06:33:19.697Z,0.00
2023-01-17T06:35:51.415Z,0.10
2023-01-17T06:38:20.000Z,0.10
2023-01-17T06:40:48.369Z,0.00
2023-01-17T06:43:16.665Z,0.00
2023-01-17T06:45:46.532Z,0.33
2023-01-17T06:48:15.062Z,0.00
2023-01-17T06:50:43.933Z,0.00
2023-01-17T06:53:13.955Z,0.00
2023-01-17T06:55:45.018Z,0.00
2023-01-17T06:58:13.355Z,0.10
2023-01-17T07:00:41.745Z,0.00
2023-01-17T07:03:19.010Z,0.00
2023-01-17T07:05:47.400Z,0.00
2023-01-17T07:08:17.014Z,0.40
2023-01-17T07:10:45.678Z,0.07
2023-01-17T07:13:14.161Z,0.00
2023-01-17T07:15:42.514Z,0.00
2023-01-17T07:18:12.346Z,0.30
2023-01-17T07:20:43.379Z,0.00
2023-01-17T07:23:11.757Z,0.20
2023-01-17T07:25:40.157Z,0.00
2023-01-17T07:28:08.548Z,0.00
2023-01-17T07:30:36.946Z,0.00
2023-01-17T07:33:05.474Z,0.00
2023-01-17T07:35:35.256Z,0.23
2023-01-17T07:38:03.646Z,0.00
2023-01-17T07:40:33.518Z,0.00
2023-01-17T07:43:13.408Z,0.00
2023-01-17T07:45:45.661Z,0.00
2023-01-17T07:48:14.911Z,0.10
2023-01-17T07:50:44.968Z,0.00
2023-01-17T07:53:13.330Z,0.00
2023-01-17T07:55:41.691Z,0.63
2023-01-17T07:58:11.238Z,0.10
2023-01-17T08:00:39.691Z,0.00
2023-01-17T08:03:08.122Z,0.30
2023-01-17T08:05:36.372Z,0.00
2023-01-17T08:08:06.363Z,0.00
2023-01-17T08:10:34.595Z,0.00
2023-01-17T08:13:02.891Z,0.00
2023-01-17T08:15:31.129Z,0.00
2023-01-17T08:17:59.410Z,0.00
2023-01-17T08:20:28.308Z,0.10
2023-01-17T08:22:56.894Z,0.00
2023-01-17T08:25:26.860Z,0.00
2023-01-17T08:27:58.453Z,0.00
2023-01-17T08:30:27.045Z,0.30
2023-01-17T08:32:55.531Z,0.00
2023-01-17T08:35:23.999Z,0.30
2023-01-17T08:37:55.180Z,0.00
2023-01-17T08:40:23.840Z,0.10
2023-01-17T08:42:57.164Z,0.00
2023-01-17T08:45:25.725Z,0.10
2023-01-17T08:47:54.141Z,0.00
2023-01-17T08:50:22.556Z,0.00
2023-01-17T08:52:51.325Z,0.00
2023-01-17T08:55:19.684Z,0.00
2023-01-17T08:57:47.995Z,0.23
2023-01-17T09:00:18.325Z,0.00
2023-01-17T09:02:46.670Z,0.43
2023-01-17T09:05:15.163Z,0.00
2023-01-17T09:07:43.502Z,0.73
2023-01-17T09:10:12.482Z,0.10
2023-01-17T09:12:41.290Z,0.10
2023-01-17T09:15:09.798Z,0.03
2023-01-17T09:17:39.451Z,0.00
2023-01-17T09:20:08.592Z,0.00
2023-01-17T09:22:37.747Z,0.10
2023-01-17T09:25:06.550Z,0.40
2023-01-17T09:27:34.961Z,0.10
2023-01-17T09:30:03.290Z,0.33
2023-01-17T09:32:31.588Z,0.05
2023-01-17T09:35:01.341Z,0.30
2023-01-17T09:37:30.242Z,0.30
2023-01-17T09:39:58.531Z,0.00
2023-01-17T09:42:33.364Z,0.00
2023-01-17T09:45:02.431Z,0.00
2023-01-17T09:47:34.686Z,0.10
2023-01-17T09:50:09.952Z,0.00
2023-01-17T09:52:38.272Z,0.00
2023-01-17T09:55:08.200Z,0.20
2023-01-17T09:57:40.485Z,0.00
2023-01-17T10:00:13.771Z,0.00
2023-01-17T10:02:56.874Z,0.00
2023-01-17T10:05:38.841Z,0.00
2023-01-17T10:08:20.621Z,0.00
2023-01-17T10:10:53.934Z,0.00
2023-01-17T10:13:29.295Z,0.00
2023-01-17T10:16:06.892Z,0.28
2023-01-17T10:18:47.423Z,0.00
2023-01-17T10:21:20.917Z,0.20
2023-01-17T10:24:00.000Z,0.00
2023-01-17T10:26:28.969Z,0.00
2023-01-17T10:29:01.384Z,0.00
2023-01-17T10:31:31.007Z,0.20
2023-01-17T10:34:03.692Z,0.00
2023-01-17T10:36:35.808Z,0.00
2023-01-17T10:39:13.588Z,0.32
2023-01-17T10:41:43.114Z,0.00
2023-01-17T10:44:17.278Z,0.20
2023-01-17T10:46:47.579Z,0.10
2023-01-17T10:49:17.812Z,0.10
2023-01-17T10:52:03.964Z,0.22
2023-01-17T10:54:51.428Z,0.00
2023-01-17T10:57:22.224Z,0.22
2023-01-17T10:59:50.885Z,0.10
2023-01-17T11:02:22.107Z,0.00
2023-01-17T11:04:54.364Z,0.00
2023-01-17T11:07:23.905Z,0.10
2023-01-17T11:09:52.908Z,0.15
2023-01-17T11:12:25.189Z,0.30
2023-01-17T11:14:58.713Z,0.10
2023-01-17T11:17:28.592Z,0.00
2023-01-17T11:20:07.759Z,0.00
2023-01-17T11:22:36.831Z,0.22
2023-01-17T11:25:05.158Z,0.10
2023-01-17T11:27:36.343Z,0.10
2023-01-17T11:30:06.260Z,0.15
2023-01-17T11:32:35.029Z,0.00
2023-01-17T11:35:16.660Z,0.17
2023-01-17T11:37:55.142Z,0.00
2023-01-17T11:40:28.262Z,0.00
2023-01-17T11:43:05.837Z,0.00
2023-01-17T11:45:34.750Z,0.05
2023-01-17T11:48:11.253Z,0.10
2023-01-17T11:50:41.797Z,0.00
2023-01-17T11:53:18.195Z,0.10
2023-01-17T11:56:01.068Z,0.03
2023-01-17T11:58:30.892Z,0.10
2023-01-17T12:01:01.255Z,0.00
2023-01-17T12:03:42.621Z,0.03
2023-01-17T12:06:14.547Z,0.10
2023-01-17T12:08:51.406Z,0.00
2023-01-17T12:11:24.434Z,0.05
2023-01-17T12:14:05.626Z,0.25
2023-01-17T12:16:39.870Z,0.10
2023-01-17T12:19:33.599Z,0.05
2023-01-17T12:22:08.581Z,0.00
2023-01-17T12:24:48.081Z,0.45
2023-01-17T12:27:25.187Z,0.30
2023-01-17T12:30:00.381Z,0.10
2023-01-17T12:32:36.928Z,0.00
2023-01-17T12:35:10.122Z,0.52
2023-01-17T12:37:39.862Z,0.00
2023-01-17T12:40:16.893Z,0.00
2023-01-17T12:42:48.860Z,0.00
2023-01-17T12:45:22.622Z,0.10
2023-01-17T12:47:54.831Z,0.20
2023-01-17T12:50:25.456Z,0.65
2023-01-17T12:52:56.321Z,0.22
2023-01-17T12:55:29.731Z,0.00
2023-01-17T12:57:58.970Z,0.32
2023-01-17T13:00:30.236Z,0.00
2023-01-17T13:03:01.299Z,0.10
2023-01-17T13:05:34.260Z,0.10
2023-01-17T13:08:08.425Z,0.50
2023-01-17T13:10:41.349Z,0.93
2023-01-17T13:13:22.379Z,0.13
2023-01-17T13:15:54.250Z,0.30
2023-01-17T13:18:26.180Z,0.45
2023-01-17T13:21:06.120Z,0.30
2023-01-17T13:23:41.639Z,0.05
2023-01-17T13:26:15.032Z,0.00
2023-01-17T13:28:47.727Z,0.00
2023-01-17T13:31:24.699Z,0.55
2023-01-17T13:34:07.542Z,0.63
2023-01-17T13:36:53.836Z,0.00
2023-01-17T13:39:32.263Z,0.40
2023-01-17T13:42:10.509Z,0.40
2023-01-17T13:44:38.868Z,0.10
2023-01-17T13:47:29.835Z,0.08
2023-01-17T13:49:59.576Z,0.03
2023-01-17T13:52:33.669Z,0.45
2023-01-17T13:55:03.360Z,0.70
2023-01-17T13:57:43.828Z,0.40
2023-01-17T14:00:31.139Z,1.05
2023-01-17T14:03:00.999Z,0.13
2023-01-17T14:05:44.276Z,0.08
2023-01-17T14:08:16.267Z,0.40
2023-01-17T14:10:49.157Z,0.10
2023-01-17T14:13:30.547Z,0.40
2023-01-17T14:15:59.623Z,1.38
2023-01-17T14:18:34.729Z,0.35
2023-01-17T14:21:08.021Z,0.35
2023-01-17T14:23:51.832Z,0.00
2023-01-17T14:26:28.480Z,0.00
2023-01-17T14:28:58.148Z,0.55
2023-01-17T14:31:26.944Z,0.35
2023-01-17T14:33:56.781Z,0.20
2023-01-17T14:36:27.135Z,0.00
2023-01-17T14:38:55.777Z,0.00
2023-01-17T14:41:25.523Z,0.20
2023-01-17T14:43:54.139Z,0.43
2023-01-17T14:46:25.881Z,0.00
2023-01-17T14:48:54.860Z,0.00
2023-01-17T14:51:25.031Z,0.17
2023-01-17T14:53:55.334Z,0.35
2023-01-17T14:56:23.809Z,0.00
2023-01-17T14:59:05.824Z,0.30
2023-01-17T15:01:36.286Z,0.00
2023-01-17T15:04:04.922Z,0.25
2023-01-17T15:06:43.067Z,0.17
2023-01-17T15:09:12.215Z,0.20
2023-01-17T15:11:41.059Z,0.00
2023-01-17T15:14:09.912Z,0.00
2023-01-17T15:16:40.195Z,0.10
2023-01-17T15:19:12.101Z,0.13
2023-01-17T15:21:43.731Z,0.00
2023-01-17T15:24:17.128Z,0.23
2023-01-17T15:26:45.784Z,0.20
2023-01-17T15:29:18.815Z,1.20
2023-01-17T15:31:49.351Z,0.77
2023-01-17T15:34:22.577Z,0.30
2023-01-17T15:36:52.445Z,0.70
2023-01-17T15:39:22.204Z,0.53
2023-01-17T15:41:52.973Z,1.03
2023-01-17T15:44:46.408Z,0.10
2023-01-17T15:47:29.404Z,0.77
2023-01-17T15:49:57.737Z,0.13
2023-01-17T15:52:27.565Z,0.23
2023-01-17T15:54:56.207Z,0.37
2023-01-17T15:57:26.078Z,0.20
2023-01-17T16:00:02.142Z,0.20
2023-01-17T16:02:32.920Z,0.30
2023-01-17T16:05:01.558Z,0.30
2023-01-17T16:07:33.998Z,0.17
2023-01-17T16:10:15.964Z,0.30
2023-01-17T16:12:44.430Z,0.73
2023-01-17T16:15:13.652Z,0.53
2023-01-17T16:17:43.406Z,0.20
2023-01-17T16:20:16.000Z,1.87
2023-01-17T16:22:45.815Z,0.30
2023-01-17T16:25:14.990Z,2.13
2023-01-17T16:27:43.289Z,0.23
2023-01-17T16:30:12.176Z,1.20
2023-01-17T16:32:40.613Z,0.67
2023-01-17T16:35:09.420Z,0.63
2023-01-17T16:37:38.023Z,0.50
2023-01-17T16:40:09.088Z,1.60
2023-01-17T16:42:37.992Z,2.73
2023-01-17T16:45:06.990Z,0.10
2023-01-17T16:47:35.410Z,1.07
2023-01-17T16:50:03.788Z,0.63
2023-01-17T16:52:32.153Z,1.33
2023-01-17T16:55:00.441Z,0.73
2023-01-17T16:57:30.193Z,0.43
2023-01-17T16:59:58.503Z,0.73
2023-01-17T17:02:26.869Z,1.17
2023-01-17T17:04:55.408Z,0.10
2023-01-17T17:07:24.163Z,4.07
2023-01-17T17:09:52.508Z,1.97
2023-01-17T17:12:21.017Z,1.00
2023-01-17T17:14:50.735Z,0.60
2023-01-17T17:17:19.079Z,2.00
2023-01-17T17:19:49.059Z,5.63
2023-01-17T17:22:17.378Z,10.27
2023-01-17T17:24:45.671Z,5.80
2023-01-17T17:27:13.991Z,3.40
2023-01-17T17:29:42.448Z,3.63
2023-01-17T17:32:12.548Z,0.57
2023-01-17T17:34:40.846Z,0.30
2023-01-17T17:37:10.304Z,1.57
2023-01-17T17:39:39.082Z,2.67
2023-01-17T17:42:08.218Z,2.10
2023-01-17T17:44:36.817Z,0.90
2023-01-17T17:47:05.250Z,2.43
2023-01-17T17:49:35.264Z,1.17
2023-01-17T17:52:07.426Z,3.17
2023-01-17T17:54:36.360Z,2.33
2023-01-17T17:57:04.969Z,3.83
2023-01-17T17:59:33.327Z,3.27
2023-01-17T18:02:01.922Z,2.43
2023-01-17T18:04:30.401Z,5.03
2023-01-17T18:07:00.914Z,4.20
2023-01-17T18:09:29.627Z,3.80
2023-01-17T18:11:59.245Z,1.77
2023-01-17T18:14:27.747Z,1.17
2023-01-17T18:16:57.224Z,0.00
2023-01-17T18:19:26.862Z,0.70
2023-01-17T18:21:55.578Z,0.40
2023-01-17T18:24:26.206Z,0.00
2023-01-17T18:26:57.234Z,0.00
2023-01-17T18:29:27.306Z,0.30
2023-01-17T18:31:56.273Z,1.00
2023-01-17T18:34:28.727Z,0.10
2023-01-17T18:36:57.214Z,0.30
2023-01-17T18:39:30.722Z,0.10
2023-01-17T18:41:59.515Z,0.23
2023-01-17T18:44:28.379Z,0.40
2023-01-17T18:46:58.596Z,0.00
2023-01-17T18:49:27.187Z,0.10
2023-01-17T18:51:55.617Z,0.27
2023-01-17T18:54:24.186Z,0.20
2023-01-17T18:56:55.969Z,0.40
2023-01-17T18:59:25.767Z,0.97
2023-01-17T19:01:55.387Z,4.57
2023-01-17T19:04:23.754Z,3.00
2023-01-17T19:06:52.121Z,0.47
2023-01-17T19:09:20.515Z,0.10
2023-01-17T19:11:50.122Z,0.30
2023-01-17T19:14:19.855Z,0.00
2023-01-17T19:16:48.349Z,0.33
2023-01-17T19:19:17.214Z,0.57
2023-01-17T19:21:45.706Z,0.20
2023-01-17T19:24:14.513Z,0.63
2023-01-17T19:26:43.210Z,0.40
2023-01-17T19:29:12.168Z,1.10
2023-01-17T19:31:43.646Z,0.10
2023-01-17T19:34:13.963Z,0.00
2023-01-17T19:36:42.517Z,0.03
2023-01-17T19:39:11.014Z,0.50
2023-01-17T19:41:42.872Z,0.40
2023-01-17T19:44:12.604Z,0.00
2023-01-17T19:46:44.270Z,0.13
2023-01-17T19:49:12.668Z,0.13
2023-01-17T19:51:41.100Z,0.57
2023-01-17T19:54:09.771Z,0.20
2023-01-17T19:56:38.328Z,0.10
2023-01-17T19:59:07.171Z,0.63
2023-01-17T20:01:36.020Z,0.77
2023-01-17T20:04:06.108Z,0.33
2023-01-17T20:06:35.963Z,2.60
2023-01-17T20:09:05.078Z,0.50
2023-01-17T20:11:33.740Z,1.40
2023-01-17T20:14:02.071Z,2.33
2023-01-17T20:16:32.026Z,0.97
2023-01-17T20:19:02.898Z,0.10
2023-01-17T20:21:34.351Z,0.10
2023-01-17T20:24:04.328Z,0.57
2023-01-17T20:26:37.703Z,0.23
2023-01-17T20:29:10.590Z,0.20
2023-01-17T20:31:40.245Z,0.30
2023-01-17T20:34:10.719Z,0.50
2023-01-17T20:36:41.624Z,0.33
2023-01-17T20:39:11.767Z,0.70
2023-01-17T20:41:41.860Z,0.07
2023-01-17T20:44:13.840Z,0.30
2023-01-17T20:46:42.544Z,0.57
2023-01-17T20:49:15.453Z,0.00
2023-01-17T20:51:45.612Z,1.33
2023-01-17T20:54:15.612Z,0.37
2023-01-17T20:56:44.059Z,0.30
2023-01-17T20:59:14.986Z,0.17
2023-01-17T21:01:44.915Z,0.70
2023-01-17T21:04:14.727Z,0.10
2023-01-17T21:06:45.018Z,0.70
2023-01-17T21:09:14.631Z,0.40
2023-01-17T21:11:43.133Z,0.13
2023-01-17T21:14:11.498Z,0.30
2023-01-17T21:16:40.093Z,0.10
2023-01-17T21:19:11.964Z,0.00
2023-01-17T21:21:40.481Z,0.50
2023-01-17T21:24:16.305Z,0.90
2023-01-17T21:26:45.771Z,1.13
2023-01-17T21:29:16.225Z,1.13
2023-01-17T21:31:45.441Z,0.40
2023-01-17T21:34:14.670Z,0.40
2023-01-17T21:36:43.816Z,0.43
2023-01-17T21:39:15.968Z,0.27
2023-01-17T21:41:46.685Z,1.53
2023-01-17T21:44:20.291Z,0.47
2023-01-17T21:46:56.525Z,0.57
2023-01-17T21:49:25.633Z,1.50
2023-01-17T21:52:11.464Z,0.30
2023-01-17T21:54:59.488Z,0.43
2023-01-17T21:57:45.512Z,0.40
2023-01-17T22:00:15.576Z,0.60
2023-01-17T22:02:44.186Z,0.30
2023-01-17T22:05:12.930Z,0.00
2023-01-17T22:08:01.307Z,0.10
2023-01-17T22:10:31.318Z,1.20
2023-01-17T22:13:00.130Z,0.40
2023-01-17T22:15:28.928Z,0.43
2023-01-17T22:17:58.171Z,0.93
2023-01-17T22:20:27.124Z,1.30
2023-01-17T22:22:56.215Z,1.27
2023-01-17T22:25:24.922Z,0.97
2023-01-17T22:27:55.250Z,0.73
2023-01-17T22:30:24.042Z,2.03
2023-01-17T22:32:52.571Z,0.90
2023-01-17T22:35:21.228Z,0.00
2023-01-17T22:37:49.690Z,0.20
2023-01-17T22:40:18.861Z,0.40
2023-01-17T22:42:47.508Z,0.60
2023-01-17T22:45:19.239Z,0.43
2023-01-17T22:47:49.439Z,0.53
2023-01-17T22:50:18.372Z,0.70
2023-01-17T22:52:47.324Z,0.63
2023-01-17T22:55:15.878Z,0.97
2023-01-17T22:57:49.129Z,0.20
2023-01-17T23:00:19.044Z,0.13
2023-01-17T23:02:51.342Z,0.20
2023-01-17T23:05:20.351Z,1.90
2023-01-17T23:07:50.998Z,0.67
2023-01-17T23:10:33.605Z,0.10
2023-01-17T23:13:02.369Z,1.40
2023-01-17T23:15:48.520Z,0.10
2023-01-17T23:18:36.058Z,0.63
2023-01-17T23:21:04.916Z,0.47
2023-01-17T23:23:34.220Z,0.87
2023-01-17T23:26:03.338Z,1.60
2023-01-17T23:28:31.030Z,0.33
2023-01-17T23:31:03.885Z,0.20
2023-01-17T23:33:34.412Z,0.37
2023-01-17T23:36:03.294Z,0.47
2023-01-17T23:38:36.843Z,1.67
2023-01-17T23:41:24.873Z,0.60
2023-01-17T23:43:54.405Z,0.50
2023-01-17T23:46:25.527Z,0.20
2023-01-17T23:48:56.220Z,1.33
2023-01-17T23:51:25.307Z,0.20
2023-01-17T23:54:05.625Z,0.40
2023-01-17T23:56:35.295Z,0.20
2023-01-17T23:59:04.659Z,0.10
